Rackwick, United Kingdom
Current Conditions -  °F | °C
As of 3:20 PM on Thursday 30 Oct 2014 (Local Time) from EGPA Reporting Station
Broken Clouds Broken Clouds  
Wind Chill: 54°   Ceiling: 600
Heat Index: 54°   Visibility: 6mi
Dew Point: 52°   Wind: 12mph
Humidity: 94%   Direction: 150°SSE
Pressure: 29.85"   Gusts: NA
Location:  58.87°N, 3.38°W
Report Text: EGPA 301520Z 15010KT 9999 FEW005 BKN006 BKN010 12/11 Q1011
Loading
Personal Weather Stations






























Interactive Weather Map
Tropical Storm Tracking
New forecast layout! Learn more

10-Day Weather Forecast

Advertisements
Track Severe Weather on mobile